createdAt,value
2022-11-15T00:00:46.064Z,15.27
2022-11-15T00:03:31.498Z,15.38
2022-11-15T00:06:16.768Z,16.33
2022-11-15T00:09:02.153Z,15.20
2022-11-15T00:11:46.947Z,15.75
2022-11-15T00:14:31.750Z,16.83
2022-11-15T00:17:16.750Z,17.20
2022-11-15T00:20:01.695Z,15.95
2022-11-15T00:22:46.813Z,15.10
2022-11-15T00:25:32.264Z,15.07
2022-11-15T00:28:19.936Z,15.50
2022-11-15T00:31:06.450Z,15.98
2022-11-15T00:33:51.489Z,16.02
2022-11-15T00:36:36.386Z,17.80
2022-11-15T00:39:21.332Z,15.88
2022-11-15T00:42:06.552Z,15.15
2022-11-15T00:44:51.565Z,16.17
2022-11-15T00:47:36.388Z,17.02
2022-11-15T00:50:21.304Z,17.20
2022-11-15T00:53:06.203Z,16.63
2022-11-15T00:55:51.392Z,15.70
2022-11-15T00:58:36.668Z,16.55
2022-11-15T01:01:21.422Z,17.27
2022-11-15T01:04:06.969Z,16.17
2022-11-15T01:06:52.189Z,16.27
2022-11-15T01:09:37.357Z,15.85
2022-11-15T01:12:22.394Z,15.85
2022-11-15T01:15:07.431Z,15.30
2022-11-15T01:17:52.531Z,14.88
2022-11-15T01:20:44.195Z,16.80
2022-11-15T01:23:29.117Z,15.90
2022-11-15T01:26:15.255Z,15.25
2022-11-15T01:29:00.389Z,14.52
2022-11-15T01:31:45.557Z,16.27
2022-11-15T01:34:30.829Z,15.98
2022-11-15T01:37:15.947Z,15.80
2022-11-15T01:40:00.732Z,15.50
2022-11-15T01:42:45.737Z,16.75
2022-11-15T01:45:30.986Z,14.80
2022-11-15T01:48:15.892Z,16.23
2022-11-15T01:51:02.001Z,14.63
2022-11-15T01:53:48.536Z,16.38
2022-11-15T01:56:36.549Z,16.90
2022-11-15T01:59:21.722Z,15.32
2022-11-15T02:02:06.935Z,15.73
2022-11-15T02:04:52.026Z,14.13
2022-11-15T02:07:37.431Z,14.82
2022-11-15T02:10:23.870Z,14.25
2022-11-15T02:13:08.984Z,14.90
2022-11-15T02:16:11.790Z,14.50
2022-11-15T02:19:00.705Z,15.13
2022-11-15T02:21:51.110Z,14.05
2022-11-15T02:24:51.662Z,13.55
2022-11-15T02:27:51.674Z,14.45
2022-11-15T02:30:42.303Z,13.80
2022-11-15T02:33:52.479Z,14.15
2022-11-15T02:36:42.126Z,14.80
2022-11-15T02:39:36.695Z,13.60
2022-11-15T02:42:48.036Z,14.32
2022-11-15T02:45:36.852Z,14.60
2022-11-15T02:48:22.250Z,14.48
2022-11-15T02:51:07.668Z,14.27
2022-11-15T02:53:52.404Z,15.52
2022-11-15T02:56:37.647Z,13.95
2022-11-15T02:59:40.279Z,13.77
2022-11-15T03:02:25.380Z,10.63
2022-11-15T03:05:21.305Z,15.27
2022-11-15T03:08:06.465Z,13.30
2022-11-15T03:10:57.117Z,13.52
2022-11-15T03:13:47.847Z,14.93
2022-11-15T03:16:37.991Z,14.50
2022-11-15T03:19:25.891Z,14.27
2022-11-15T03:22:12.640Z,13.77
2022-11-15T03:24:59.688Z,14.55
2022-11-15T03:27:47.176Z,14.15
2022-11-15T03:30:33.561Z,14.18
2022-11-15T03:33:20.140Z,13.68
2022-11-15T03:36:05.208Z,15.43
2022-11-15T03:38:51.232Z,13.35
2022-11-15T03:41:49.923Z,13.93
2022-11-15T03:44:37.806Z,13.10
2022-11-15T03:47:28.026Z,14.55
2022-11-15T03:50:15.273Z,13.48
2022-11-15T03:53:00.020Z,14.52
2022-11-15T03:55:45.284Z,13.60
2022-11-15T03:58:30.420Z,15.73
2022-11-15T04:01:15.563Z,14.73
2022-11-15T04:04:00.575Z,12.77
2022-11-15T04:06:45.796Z,13.82
2022-11-15T04:09:30.920Z,13.18
2022-11-15T04:12:31.476Z,13.88
2022-11-15T04:15:17.940Z,13.73
2022-11-15T04:18:03.416Z,13.57
2022-11-15T04:21:07.045Z,13.75
2022-11-15T04:24:10.760Z,15.65
2022-11-15T04:26:56.013Z,14.63
2022-11-15T04:29:40.978Z,14.30
2022-11-15T04:32:26.127Z,14.55
2022-11-15T04:35:11.069Z,13.70
2022-11-15T04:37:56.821Z,14.15
2022-11-15T04:40:41.885Z,13.75
2022-11-15T04:43:26.868Z,14.95
2022-11-15T04:46:12.022Z,14.52
2022-11-15T04:48:59.030Z,14.85
2022-11-15T04:51:44.736Z,14.50
2022-11-15T04:54:29.794Z,15.75
2022-11-15T04:57:15.051Z,14.00
2022-11-15T05:00:00.104Z,14.32
2022-11-15T05:03:03.572Z,13.38
2022-11-15T05:05:48.572Z,14.60
2022-11-15T05:08:33.783Z,14.25
2022-11-15T05:11:18.816Z,14.50
2022-11-15T05:14:03.713Z,14.13
2022-11-15T05:16:48.455Z,16.05
2022-11-15T05:19:33.522Z,14.35
2022-11-15T05:22:19.061Z,13.82
2022-11-15T05:25:04.196Z,13.88
2022-11-15T05:27:49.252Z,14.38
2022-11-15T05:30:34.014Z,14.18
2022-11-15T05:33:19.425Z,15.50
2022-11-15T05:36:13.032Z,13.70
2022-11-15T05:38:58.372Z,12.77
2022-11-15T05:41:52.160Z,14.20
2022-11-15T05:44:38.449Z,13.43
2022-11-15T05:47:25.995Z,13.35
2022-11-15T05:50:13.430Z,12.55
2022-11-15T05:53:02.294Z,14.23
2022-11-15T05:55:50.064Z,12.73
2022-11-15T05:58:34.931Z,12.65
2022-11-15T06:01:19.972Z,13.18
2022-11-15T06:04:05.049Z,14.70
2022-11-15T06:06:50.070Z,14.05
2022-11-15T06:09:35.196Z,13.20
2022-11-15T06:12:21.271Z,12.63
2022-11-15T06:15:06.703Z,13.75
2022-11-15T06:17:51.658Z,13.38
2022-11-15T06:20:36.672Z,12.32
2022-11-15T06:23:21.841Z,13.65
2022-11-15T06:26:06.637Z,13.07
2022-11-15T06:28:51.576Z,13.52
2022-11-15T06:31:36.423Z,14.60
2022-11-15T06:34:21.519Z,13.00
2022-11-15T06:37:06.427Z,13.65
2022-11-15T06:39:51.347Z,13.15
2022-11-15T06:42:37.667Z,13.70
2022-11-15T06:45:23.017Z,13.82
2022-11-15T06:48:08.107Z,14.05
2022-11-15T06:50:56.551Z,13.38
2022-11-15T06:53:41.544Z,12.98
2022-11-15T06:56:26.581Z,12.30
2022-11-15T06:59:11.765Z,13.60
2022-11-15T07:01:57.130Z,12.70
2022-11-15T07:04:42.258Z,11.50
2022-11-15T07:07:27.242Z,12.90
2022-11-15T07:10:13.393Z,11.43
2022-11-15T07:12:58.107Z,11.13
2022-11-15T07:15:43.310Z,11.65
2022-11-15T07:18:28.390Z,11.90
2022-11-15T07:21:13.571Z,11.32
2022-11-15T07:23:58.660Z,11.75
2022-11-15T07:26:43.689Z,11.95
2022-11-15T07:29:30.047Z,11.23
2022-11-15T07:32:15.072Z,11.40
2022-11-15T07:35:00.187Z,10.18
2022-11-15T07:37:45.389Z,11.27
2022-11-15T07:40:31.125Z,11.20
2022-11-15T07:43:16.246Z,10.82
2022-11-15T07:46:05.831Z,10.32
2022-11-15T07:48:50.580Z,10.93
2022-11-15T07:51:35.414Z,10.05
2022-11-15T07:54:20.248Z,10.55
2022-11-15T07:57:07.584Z,10.43
2022-11-15T07:59:53.196Z,9.88
2022-11-15T08:02:38.373Z,10.32
2022-11-15T08:05:23.462Z,9.23
2022-11-15T08:08:09.139Z,9.23
2022-11-15T08:10:53.979Z,8.45
2022-11-15T08:13:39.008Z,8.65
2022-11-15T08:16:24.236Z,8.35
2022-11-15T08:19:09.424Z,7.72
2022-11-15T08:21:54.477Z,8.10
2022-11-15T08:24:39.461Z,7.88
2022-11-15T08:27:24.249Z,7.72
2022-11-15T08:30:09.798Z,7.90
2022-11-15T08:32:56.776Z,7.63
2022-11-15T08:35:42.076Z,7.78
2022-11-15T08:38:29.782Z,7.93
2022-11-15T08:41:19.693Z,7.57
2022-11-15T08:44:04.528Z,8.05
2022-11-15T08:46:49.692Z,8.32
2022-11-15T08:49:34.684Z,7.90
2022-11-15T08:52:19.875Z,8.50
2022-11-15T08:55:05.227Z,8.23
2022-11-15T08:57:50.111Z,8.43
2022-11-15T09:00:35.182Z,9.43
2022-11-15T09:03:20.268Z,9.07
2022-11-15T09:06:05.235Z,8.23
2022-11-15T09:08:49.966Z,7.93
2022-11-15T09:11:35.139Z,8.25
2022-11-15T09:14:19.824Z,7.70
2022-11-15T09:17:07.795Z,6.50
2022-11-15T09:19:52.727Z,7.07
2022-11-15T09:22:39.548Z,7.07
2022-11-15T09:25:24.494Z,6.47
2022-11-15T09:28:09.276Z,6.30
2022-11-15T09:30:58.487Z,6.35
2022-11-15T09:33:46.817Z,5.85
2022-11-15T09:36:31.853Z,6.30
2022-11-15T09:39:16.704Z,5.95
2022-11-15T09:42:10.373Z,5.35
2022-11-15T09:45:03.286Z,5.40
2022-11-15T09:48:11.394Z,4.57
2022-11-15T09:51:02.068Z,4.57
2022-11-15T09:54:23.762Z,3.88
2022-11-15T09:56:26.756Z,4.43
2022-11-15T09:59:12.028Z,4.15
2022-11-15T10:01:41.564Z,3.85
2022-11-15T10:04:11.772Z,2.75
2022-11-15T10:06:41.745Z,3.20
2022-11-15T10:09:19.975Z,3.03
2022-11-15T10:11:49.110Z,2.72
2022-11-15T10:14:22.786Z,2.00
2022-11-15T10:17:08.650Z,2.47
2022-11-15T10:19:39.594Z,2.55
2022-11-15T10:22:22.560Z,1.83
2022-11-15T10:24:49.046Z,2.20
2022-11-15T10:27:19.188Z,1.77
2022-11-15T10:29:46.603Z,2.00
2022-11-15T10:32:14.552Z,1.52
2022-11-15T10:34:40.924Z,1.90
2022-11-15T10:37:07.383Z,1.35
2022-11-15T10:39:36.848Z,1.45
2022-11-15T10:42:26.782Z,1.27
2022-11-15T10:44:53.180Z,1.23
2022-11-15T10:47:23.324Z,1.20
2022-11-15T10:49:57.585Z,1.52
2022-11-15T10:52:25.426Z,1.17
2022-11-15T10:54:53.421Z,1.30
2022-11-15T10:57:22.451Z,1.30
2022-11-15T10:59:51.984Z,1.33
2022-11-15T11:02:37.542Z,1.30
2022-11-15T11:05:05.683Z,1.15
2022-11-15T11:07:33.313Z,1.65
2022-11-15T11:10:44.541Z,1.40
2022-11-15T11:13:13.356Z,1.42
2022-11-15T11:15:40.501Z,1.45
2022-11-15T11:18:07.425Z,1.58
2022-11-15T11:20:47.985Z,1.38
2022-11-15T11:23:35.877Z,1.40
2022-11-15T11:26:09.161Z,1.70
2022-11-15T11:28:42.020Z,5.25
2022-11-15T11:31:23.432Z,1.75
2022-11-15T11:34:03.432Z,1.05
2022-11-15T11:36:43.315Z,1.00
2022-11-15T11:39:09.699Z,1.30
2022-11-15T11:41:57.444Z,1.00
2022-11-15T11:44:26.897Z,1.10
2022-11-15T11:46:59.578Z,0.90
2022-11-15T11:49:38.838Z,1.17
2022-11-15T11:52:08.130Z,1.30
2022-11-15T11:54:46.259Z,0.82
2022-11-15T11:57:17.193Z,1.50
2022-11-15T11:59:47.719Z,1.38
2022-11-15T12:02:25.226Z,1.27
2022-11-15T12:04:54.008Z,0.95
2022-11-15T12:07:28.671Z,1.35
2022-11-15T12:10:04.183Z,1.13
2022-11-15T12:12:48.987Z,1.10
2022-11-15T12:15:17.437Z,0.98
2022-11-15T12:17:44.557Z,1.50
2022-11-15T12:20:24.984Z,2.00
2022-11-15T12:22:57.689Z,1.20
2022-11-15T12:25:29.627Z,0.93
2022-11-15T12:28:00.440Z,1.30
2022-11-15T12:30:40.710Z,0.77
2022-11-15T12:33:27.069Z,0.93
2022-11-15T12:36:04.359Z,0.80
2022-11-15T12:38:56.799Z,0.70
2022-11-15T12:41:24.413Z,1.08
2022-11-15T12:43:51.191Z,0.85
2022-11-15T12:46:29.778Z,1.00
2022-11-15T12:48:57.790Z,1.20
2022-11-15T12:51:43.015Z,0.80
2022-11-15T12:54:24.715Z,1.30
2022-11-15T12:57:03.335Z,1.00
2022-11-15T12:59:49.249Z,0.70
2022-11-15T13:02:19.048Z,1.02
2022-11-15T13:04:45.541Z,0.90
2022-11-15T13:07:31.919Z,1.10
2022-11-15T13:09:58.328Z,1.52
2022-11-15T13:12:27.636Z,1.42
2022-11-15T13:14:58.040Z,1.17
2022-11-15T13:17:29.145Z,1.00
2022-11-15T13:20:12.231Z,1.27
2022-11-15T13:22:51.568Z,1.33
2022-11-15T13:25:33.221Z,1.08
2022-11-15T13:28:03.608Z,0.77
2022-11-15T13:30:33.346Z,0.90
2022-11-15T13:33:01.276Z,0.75
2022-11-15T13:35:28.753Z,1.00
2022-11-15T13:37:56.523Z,1.00
2022-11-15T13:40:31.433Z,1.85
2022-11-15T13:42:58.323Z,1.00
2022-11-15T13:45:25.246Z,1.33
2022-11-15T13:47:52.424Z,0.80
2022-11-15T13:50:21.360Z,0.90
2022-11-15T13:52:49.770Z,1.00
2022-11-15T13:55:18.288Z,1.00
2022-11-15T13:57:54.367Z,2.03
2022-11-15T14:00:41.581Z,2.10
2022-11-15T14:03:15.096Z,1.10
2022-11-15T14:05:41.517Z,1.15
2022-11-15T14:08:23.577Z,0.98
2022-11-15T14:11:06.337Z,0.77
2022-11-15T14:13:32.844Z,0.98
2022-11-15T14:16:15.494Z,0.85
2022-11-15T14:18:52.173Z,0.88
2022-11-15T14:21:19.593Z,0.80
2022-11-15T14:23:46.513Z,0.80
2022-11-15T14:26:28.250Z,0.80
2022-11-15T14:28:54.709Z,0.80
2022-11-15T14:31:21.814Z,0.75
2022-11-15T14:33:48.576Z,0.77
2022-11-15T14:36:21.636Z,1.27
2022-11-15T14:38:48.505Z,1.20
2022-11-15T14:41:14.872Z,1.10
2022-11-15T14:43:41.238Z,0.90
2022-11-15T14:46:07.557Z,1.13
2022-11-15T14:48:34.260Z,1.55
2022-11-15T14:51:01.047Z,1.25
2022-11-15T14:53:27.525Z,1.50
2022-11-15T14:55:53.915Z,1.70
2022-11-15T14:58:20.349Z,1.63
2022-11-15T15:00:46.842Z,1.10
2022-11-15T15:03:13.780Z,1.00
2022-11-15T15:05:41.507Z,1.50
2022-11-15T15:08:08.747Z,1.20
2022-11-15T15:10:40.590Z,1.10
2022-11-15T15:13:13.655Z,2.10
2022-11-15T15:15:40.100Z,4.45
2022-11-15T15:18:07.143Z,2.70
2022-11-15T15:20:33.596Z,3.20
2022-11-15T15:22:59.939Z,1.23
2022-11-15T15:25:35.892Z,1.73
2022-11-15T15:28:02.957Z,1.98
2022-11-15T15:30:30.423Z,3.55
2022-11-15T15:32:56.940Z,7.32
2022-11-15T15:35:23.502Z,3.30
2022-11-15T15:37:50.900Z,5.38
2022-11-15T15:40:18.636Z,2.10
2022-11-15T15:42:45.169Z,1.20
2022-11-15T15:45:13.143Z,1.35
2022-11-15T15:47:40.099Z,2.00
2022-11-15T15:50:15.515Z,1.77
2022-11-15T15:52:41.886Z,3.00
2022-11-15T15:55:08.435Z,1.77
2022-11-15T15:57:34.796Z,1.80
2022-11-15T16:00:01.273Z,1.77
2022-11-15T16:02:27.718Z,1.75
2022-11-15T16:04:54.076Z,1.75
2022-11-15T16:07:22.966Z,1.88
2022-11-15T16:10:01.647Z,2.20
2022-11-15T16:12:28.549Z,2.53
2022-11-15T16:14:56.055Z,2.28
2022-11-15T16:17:23.767Z,2.60
2022-11-15T16:19:50.153Z,2.05
2022-11-15T16:22:16.515Z,2.45
2022-11-15T16:24:42.929Z,2.25
2022-11-15T16:27:27.550Z,2.33
2022-11-15T16:29:53.917Z,2.08
2022-11-15T16:32:20.370Z,6.95
2022-11-15T16:34:49.230Z,2.53
2022-11-15T16:37:22.836Z,2.42
2022-11-15T16:39:49.425Z,3.25
2022-11-15T16:42:16.000Z,4.78
2022-11-15T16:44:42.334Z,8.02
2022-11-15T16:47:19.640Z,2.92
2022-11-15T16:49:46.317Z,2.33
2022-11-15T16:52:14.011Z,3.67
2022-11-15T16:54:41.928Z,5.75
2022-11-15T16:57:10.028Z,3.55
2022-11-15T16:59:38.448Z,2.60
2022-11-15T17:02:05.901Z,2.47
2022-11-15T17:04:33.742Z,2.22
2022-11-15T17:07:00.459Z,2.95
2022-11-15T17:09:26.941Z,2.90
2022-11-15T17:11:53.385Z,2.78
2022-11-15T17:14:19.828Z,2.72
2022-11-15T17:16:46.827Z,2.65
2022-11-15T17:19:17.179Z,3.50
2022-11-15T17:21:43.962Z,5.35
2022-11-15T17:24:10.705Z,4.72
2022-11-15T17:26:40.770Z,5.35
2022-11-15T17:29:08.021Z,3.35
2022-11-15T17:31:35.251Z,2.97
2022-11-15T17:34:02.411Z,3.40
2022-11-15T17:36:29.084Z,3.10
2022-11-15T17:38:59.541Z,3.83
2022-11-15T17:41:27.056Z,3.63
2022-11-15T17:43:53.546Z,3.92
2022-11-15T17:46:21.022Z,4.45
2022-11-15T17:48:47.830Z,5.22
2022-11-15T17:51:15.270Z,4.22
2022-11-15T17:53:42.818Z,4.43
2022-11-15T17:56:10.526Z,4.07
2022-11-15T17:58:37.160Z,3.97
2022-11-15T18:01:05.671Z,3.60
2022-11-15T18:03:38.620Z,4.50
2022-11-15T18:06:06.200Z,5.32
2022-11-15T18:08:33.093Z,6.15
2022-11-15T18:11:13.577Z,6.45
2022-11-15T18:13:40.900Z,8.05
2022-11-15T18:16:09.523Z,7.05
2022-11-15T18:18:36.524Z,5.57
2022-11-15T18:21:06.986Z,5.25
2022-11-15T18:23:34.165Z,4.93
2022-11-15T18:26:01.498Z,4.88
2022-11-15T18:28:35.629Z,5.60
2022-11-15T18:31:02.961Z,6.05
2022-11-15T18:33:29.770Z,5.82
2022-11-15T18:36:03.756Z,5.80
2022-11-15T18:38:30.993Z,5.35
2022-11-15T18:40:58.152Z,5.13
2022-11-15T18:43:24.904Z,5.75
2022-11-15T18:45:51.296Z,6.45
2022-11-15T18:48:17.726Z,5.75
2022-11-15T18:50:44.118Z,5.80
2022-11-15T18:53:10.528Z,5.90
2022-11-15T18:55:36.848Z,6.60
2022-11-15T18:58:03.179Z,5.80
2022-11-15T19:00:30.549Z,8.50
2022-11-15T19:02:56.966Z,6.13
2022-11-15T19:05:23.483Z,5.80
2022-11-15T19:07:49.929Z,5.68
2022-11-15T19:10:16.463Z,6.07
2022-11-15T19:12:42.806Z,5.82
2022-11-15T19:15:10.358Z,6.38
2022-11-15T19:17:36.905Z,6.65
2022-11-15T19:20:03.582Z,7.60
2022-11-15T19:22:29.965Z,5.68
2022-11-15T19:24:56.404Z,4.95
2022-11-15T19:27:22.974Z,5.15
2022-11-15T19:29:49.429Z,6.07
2022-11-15T19:32:15.816Z,5.70
2022-11-15T19:34:42.220Z,7.25
2022-11-15T19:37:08.554Z,6.25
2022-11-15T19:39:39.861Z,6.03
2022-11-15T19:44:33.893Z,10.18
2022-11-15T19:47:00.242Z,7.88
2022-11-15T19:49:27.329Z,6.80
2022-11-15T19:51:54.731Z,7.38
2022-11-15T19:54:21.203Z,9.93
2022-11-15T19:56:47.653Z,7.47
2022-11-15T19:59:14.390Z,5.88
2022-11-15T20:01:41.980Z,5.15
2022-11-15T20:04:09.786Z,6.30
2022-11-15T20:06:39.326Z,5.30
2022-11-15T20:09:05.742Z,5.50
2022-11-15T20:11:33.449Z,5.20
2022-11-15T20:14:02.004Z,7.00
2022-11-15T20:16:29.201Z,14.43
2022-11-15T20:18:55.603Z,7.82
2022-11-15T20:21:22.139Z,8.35
2022-11-15T20:23:52.141Z,5.53
2022-11-15T20:26:19.221Z,5.50
2022-11-15T20:28:45.803Z,6.53
2022-11-15T20:31:12.895Z,6.30
2022-11-15T20:33:39.425Z,5.70
2022-11-15T20:36:06.841Z,5.97
2022-11-15T20:38:34.504Z,5.95
2022-11-15T20:41:01.428Z,6.07
2022-11-15T20:43:27.868Z,6.13
2022-11-15T20:45:54.297Z,5.57
2022-11-15T20:48:20.844Z,5.80
2022-11-15T20:50:47.372Z,5.93
2022-11-15T20:53:15.529Z,6.15
2022-11-15T20:55:42.921Z,5.60
2022-11-15T20:58:09.698Z,6.65
2022-11-15T21:00:36.915Z,11.65
2022-11-15T21:03:06.668Z,12.65
2022-11-15T21:05:39.612Z,12.88
2022-11-15T21:08:06.766Z,10.98
2022-11-15T21:10:51.864Z,11.95
2022-11-15T21:13:19.612Z,7.78
2022-11-15T21:15:45.959Z,7.20
2022-11-15T21:18:12.691Z,6.18
2022-11-15T21:20:39.039Z,5.95
2022-11-15T21:23:05.361Z,6.60
2022-11-15T21:25:32.580Z,6.55
2022-11-15T21:27:59.187Z,6.60
2022-11-15T21:30:25.792Z,6.32
2022-11-15T21:32:52.123Z,5.13
2022-11-15T21:35:18.460Z,6.55
2022-11-15T21:37:44.883Z,6.72
2022-11-15T21:40:11.381Z,6.22
2022-11-15T21:42:37.753Z,6.78
2022-11-15T21:45:04.436Z,6.93
2022-11-15T21:47:30.837Z,6.70
2022-11-15T21:49:57.153Z,7.10
2022-11-15T21:52:23.578Z,8.35
2022-11-15T21:54:50.029Z,6.93
2022-11-15T21:57:16.465Z,7.28
2022-11-15T22:00:01.688Z,6.40
2022-11-15T22:02:30.993Z,7.55
2022-11-15T22:04:57.591Z,7.20
2022-11-15T22:07:24.044Z,7.85
2022-11-15T22:09:50.524Z,7.38
2022-11-15T22:12:16.856Z,8.45
2022-11-15T22:14:43.292Z,7.43
2022-11-15T22:17:10.028Z,7.03
2022-11-15T22:19:51.582Z,7.13
2022-11-15T22:22:18.957Z,7.80
2022-11-15T22:24:45.305Z,7.32
2022-11-15T22:27:11.734Z,7.43
2022-11-15T22:29:38.079Z,8.05
2022-11-15T22:32:04.722Z,7.43
2022-11-15T22:34:31.211Z,7.18
2022-11-15T22:39:44.889Z,7.80
2022-11-15T22:42:11.353Z,7.15
2022-11-15T22:44:37.743Z,8.30
2022-11-15T22:47:04.205Z,8.70
2022-11-15T22:49:30.604Z,8.65
2022-11-15T22:51:56.967Z,8.10
2022-11-15T22:54:23.381Z,8.23
2022-11-15T22:56:49.799Z,8.35
2022-11-15T22:59:16.145Z,9.60
2022-11-15T23:01:42.923Z,8.27
2022-11-15T23:04:09.353Z,8.88
2022-11-15T23:06:35.775Z,9.40
2022-11-15T23:09:02.170Z,9.07
2022-11-15T23:11:47.197Z,9.75
2022-11-15T23:14:13.607Z,9.88
2022-11-15T23:16:40.484Z,8.98
2022-11-15T23:19:08.613Z,9.10
2022-11-15T23:21:55.419Z,10.18
2022-11-15T23:24:22.259Z,9.63
2022-11-15T23:26:49.661Z,10.15
2022-11-15T23:29:16.759Z,10.00
2022-11-15T23:32:02.973Z,9.50
2022-11-15T23:34:30.760Z,9.20
2022-11-15T23:36:57.220Z,10.90
2022-11-15T23:39:23.568Z,10.25
2022-11-15T23:41:49.892Z,10.23
2022-11-15T23:44:16.229Z,9.75
2022-11-15T23:46:42.595Z,11.80
2022-11-15T23:49:09.090Z,10.85
2022-11-15T23:51:35.537Z,11.15
2022-11-15T23:54:02.030Z,10.60
2022-11-15T23:56:28.419Z,10.52
2022-11-15T23:58:54.828Z,11.00
